Time;durP1;ratioP1;P1;durP2;ratioP2;P2;SDS_P1;SDS_P2;PMS_P1;PMS_P2;Temp;Humidity;BMP_temperature;BMP_pressure;BME280_temperature;BME280_humidity;BME280_pressure;Samples;Min_cycle;Max_cycle;Signal;HPM_P1;HPM_P2
2023/08/28 00:02:03;;;;;;;1.35;1.00;;;14.70;99.90;;;;;;4900551;29;20064;-69
2023/08/28 00:04:28;;;;;;;1.95;1.10;;;14.60;99.90;;;;;;4900854;29;20048;-69
2023/08/28 00:06:54;;;;;;;2.22;0.90;;;14.60;99.90;;;;;;4898571;29;20060;-69
2023/08/28 00:09:19;;;;;;;3.42;0.90;;;14.60;99.90;;;;;;4895446;29;20048;-69
2023/08/28 00:11:45;;;;;;;2.78;1.10;;;14.60;99.90;;;;;;4893564;29;20082;-69
2023/08/28 00:14:11;;;;;;;3.30;1.15;;;14.50;99.90;;;;;;4898449;29;20139;-69
2023/08/28 00:16:36;;;;;;;4.07;1.30;;;14.50;99.90;;;;;;4896861;29;20042;-68
2023/08/28 00:19:02;;;;;;;2.45;1.20;;;14.40;99.90;;;;;;4899830;29;20804;-69
2023/08/28 00:21:29;;;;;;;2.33;1.25;;;14.40;99.90;;;;;;4923861;29;20028;-69
2023/08/28 00:23:55;;;;;;;3.22;1.40;;;14.30;99.90;;;;;;4904184;29;20040;-69
2023/08/28 00:26:20;;;;;;;4.15;1.30;;;14.20;99.90;;;;;;4900618;29;20035;-69
2023/08/28 00:28:46;;;;;;;2.25;1.40;;;14.20;99.90;;;;;;4903492;29;20059;-69
2023/08/28 00:31:12;;;;;;;2.50;1.20;;;14.10;99.90;;;;;;4899340;29;20031;-69
2023/08/28 00:33:37;;;;;;;3.20;1.50;;;14.00;99.90;;;;;;4912030;29;20123;-69
2023/08/28 00:36:03;;;;;;;2.10;1.50;;;13.90;99.90;;;;;;4897609;29;20055;-69
2023/08/28 00:38:29;;;;;;;4.28;1.77;;;13.80;99.90;;;;;;4910143;29;20043;-69
2023/08/28 00:40:54;;;;;;;4.18;2.05;;;13.80;99.90;;;;;;4899130;29;20043;-69
2023/08/28 00:43:20;;;;;;;4.38;1.48;;;13.60;99.90;;;;;;4901321;29;20176;-69
2023/08/28 00:45:47;;;;;;;2.15;1.33;;;13.50;99.90;;;;;;4900105;29;20082;-69
2023/08/28 00:48:18;;;;;;;2.20;1.48;;;13.40;99.90;;;;;;4899339;29;20052;-68
2023/08/28 00:50:44;;;;;;;4.05;1.45;;;13.30;99.90;;;;;;4901225;29;20024;-69
2023/08/28 00:53:11;;;;;;;2.55;1.60;;;13.20;99.90;;;;;;4901134;29;20043;-69
2023/08/28 00:55:37;;;;;;;3.47;1.30;;;13.10;99.90;;;;;;4913593;29;20508;-69
2023/08/28 00:58:03;;;;;;;2.38;1.40;;;13.00;99.90;;;;;;4898958;29;20174;-69
2023/08/28 01:00:29;;;;;;;3.88;1.40;;;12.90;99.90;;;;;;4899778;29;20024;-68
2023/08/28 01:02:55;;;;;;;1.73;1.17;;;12.90;99.90;;;;;;4898656;29;20469;-69
2023/08/28 01:05:49;;;;;;;3.92;1.10;;;12.80;99.90;;;;;;4893956;29;20132;-69
2023/08/28 01:08:33;;;;;;;5.30;1.30;;;12.80;99.90;;;;;;4888525;29;20036;-69
2023/08/28 01:11:14;;;;;;;3.15;1.52;;;12.70;99.90;;;;;;4899223;29;20046;-69
2023/08/28 01:14:11;;;;;;;2.20;1.40;;;12.60;99.90;;;;;;4901078;29;20042;-69
2023/08/28 01:16:37;;;;;;;1.80;1.40;;;12.60;99.90;;;;;;4916820;29;20107;-69
2023/08/28 01:19:08;;;;;;;3.55;1.42;;;12.60;99.90;;;;;;4903215;29;20028;-69
2023/08/28 01:21:34;;;;;;;2.80;1.40;;;12.50;99.90;;;;;;4903701;29;20122;-69
2023/08/28 01:24:01;;;;;;;2.90;1.55;;;12.50;99.90;;;;;;4902460;29;20122;-69
2023/08/28 01:26:27;;;;;;;3.33;1.50;;;12.50;99.90;;;;;;4903844;29;20727;-69
2023/08/28 01:28:52;;;;;;;4.78;1.42;;;12.50;99.90;;;;;;4917502;29;20048;-69
2023/08/28 01:31:18;;;;;;;8.35;1.70;;;12.50;99.90;;;;;;4898741;29;20122;-69
2023/08/28 01:33:44;;;;;;;2.65;1.60;;;12.40;99.90;;;;;;4894604;29;20032;-69
2023/08/28 01:36:19;;;;;;;3.25;1.60;;;12.40;99.90;;;;;;4897048;29;20079;-69
2023/08/28 01:38:55;;;;;;;3.38;1.30;;;12.30;99.90;;;;;;4900763;29;20031;-69
2023/08/28 01:41:23;;;;;;;2.55;1.50;;;12.20;99.90;;;;;;4902394;29;20047;-69
2023/08/28 01:43:52;;;;;;;4.47;1.67;;;12.20;99.90;;;;;;4894130;29;20050;-69
2023/08/28 01:46:18;;;;;;;5.97;1.58;;;12.10;99.90;;;;;;4898321;29;20039;-69
2023/08/28 01:48:50;;;;;;;1.73;1.20;;;12.10;99.90;;;;;;4905224;29;20086;-69
2023/08/28 01:51:16;;;;;;;4.63;1.60;;;12.10;99.90;;;;;;4898616;29;20110;-69
2023/08/28 01:53:42;;;;;;;3.97;1.40;;;12.10;99.90;;;;;;4899903;29;20036;-69
2023/08/28 01:56:07;;;;;;;4.97;1.35;;;12.10;99.90;;;;;;4897390;29;20673;-69
2023/08/28 01:58:43;;;;;;;3.33;1.40;;;12.10;99.90;;;;;;4897910;29;20642;-69
2023/08/28 02:01:08;;;;;;;3.08;1.40;;;12.00;99.90;;;;;;4898521;29;20060;-69
2023/08/28 02:03:34;;;;;;;5.60;2.00;;;12.00;99.90;;;;;;4898652;29;20547;-69
2023/08/28 02:05:59;;;;;;;5.07;1.33;;;12.00;99.90;;;;;;4900867;29;20518;-69
2023/08/28 02:08:25;;;;;;;2.35;1.38;;;12.00;99.90;;;;;;4918341;29;20452;-69
2023/08/28 02:10:54;;;;;;;3.17;1.63;;;12.00;99.90;;;;;;4899882;29;20296;-69
2023/08/28 02:13:20;;;;;;;1.48;1.20;;;11.90;99.90;;;;;;4900047;29;20107;-69
2023/08/28 02:15:45;;;;;;;3.55;1.50;;;11.90;99.90;;;;;;4902349;29;20500;-69
2023/08/28 02:18:11;;;;;;;5.78;1.73;;;11.90;99.90;;;;;;4913122;29;20146;-69
2023/08/28 02:20:36;;;;;;;3.22;1.58;;;11.90;99.90;;;;;;4910741;29;20135;-69
2023/08/28 02:23:02;;;;;;;2.50;1.55;;;11.90;99.90;;;;;;4900107;29;20154;-69
2023/08/28 02:25:28;;;;;;;5.03;1.52;;;11.90;99.90;;;;;;4889740;29;20043;-69
2023/08/28 02:27:53;;;;;;;3.03;1.50;;;11.90;99.90;;;;;;4914762;29;20522;-69
2023/08/28 02:30:19;;;;;;;2.78;1.40;;;11.90;99.90;;;;;;4901470;29;20028;-69
2023/08/28 02:32:45;;;;;;;2.65;1.30;;;11.90;99.90;;;;;;4893950;29;20473;-69
2023/08/28 02:35:14;;;;;;;1.80;1.10;;;11.80;99.90;;;;;;4897631;29;20036;-69
2023/08/28 02:37:40;;;;;;;1.70;1.20;;;11.80;99.90;;;;;;4898116;29;20032;-69
2023/08/28 02:40:10;;;;;;;3.85;1.55;;;11.80;99.90;;;;;;4897990;29;20415;-69
2023/08/28 02:42:36;;;;;;;3.80;1.50;;;11.80;99.90;;;;;;4899706;29;20135;-69
2023/08/28 02:45:02;;;;;;;2.55;1.50;;;11.80;99.90;;;;;;4900419;29;20044;-69
2023/08/28 02:47:28;;;;;;;3.75;1.27;;;11.80;99.90;;;;;;4900971;29;20028;-69
2023/08/28 02:49:53;;;;;;;2.72;1.48;;;11.80;99.90;;;;;;4902628;29;20079;-69
2023/08/28 02:52:19;;;;;;;1.73;1.40;;;11.90;99.90;;;;;;4906897;29;20691;-69
2023/08/28 02:54:45;;;;;;;1.73;1.30;;;11.90;99.90;;;;;;4907601;29;20503;-69
2023/08/28 02:57:10;;;;;;;9.70;1.48;;;11.90;99.90;;;;;;4901952;29;20032;-69
2023/08/28 02:59:36;;;;;;;3.42;1.40;;;11.90;99.90;;;;;;4899960;29;20495;-69
2023/08/28 03:02:01;;;;;;;3.78;1.52;;;11.90;99.90;;;;;;4902436;29;20035;-69
2023/08/28 03:04:27;;;;;;;3.17;1.30;;;12.00;99.90;;;;;;4900810;29;20572;-68
2023/08/28 03:06:52;;;;;;;2.40;1.20;;;12.00;99.90;;;;;;4901923;29;20032;-68
2023/08/28 03:09:18;;;;;;;2.45;1.52;;;12.10;99.90;;;;;;4912908;29;20518;-69
2023/08/28 03:11:44;;;;;;;4.07;1.98;;;12.20;99.90;;;;;;4901693;29;20031;-68
2023/08/28 03:14:09;;;;;;;7.00;1.67;;;12.20;99.90;;;;;;4908572;29;20050;-69
2023/08/28 03:16:35;;;;;;;6.47;1.70;;;12.20;99.90;;;;;;4901451;29;20289;-69
2023/08/28 03:19:01;;;;;;;5.40;1.48;;;12.30;99.90;;;;;;4915754;29;20032;-69
2023/08/28 03:21:26;;;;;;;4.10;1.90;;;12.20;99.90;;;;;;4566831;23;20086;-78
2023/08/28 03:23:52;;;;;;;2.83;1.30;;;12.20;99.90;;;;;;4906978;29;20420;-78
2023/08/28 03:26:18;;;;;;;2.83;1.50;;;12.20;99.90;;;;;;4915817;29;20020;-79
2023/08/28 03:28:44;;;;;;;2.53;1.40;;;12.20;99.90;;;;;;4918208;29;20111;-79
2023/08/28 03:31:10;;;;;;;1.85;1.38;;;12.10;99.90;;;;;;4924096;29;20027;-79
2023/08/28 03:33:35;;;;;;;3.10;1.50;;;12.10;99.90;;;;;;4927884;29;20031;-79
2023/08/28 03:36:03;;;;;;;4.78;1.70;;;12.10;99.90;;;;;;4913685;29;20035;-78
2023/08/28 03:38:28;;;;;;;3.97;1.80;;;12.10;99.90;;;;;;4924017;29;20047;-80
2023/08/28 03:40:54;;;;;;;4.78;1.70;;;12.10;99.90;;;;;;4914683;29;20452;-79
2023/08/28 03:43:20;;;;;;;2.15;1.38;;;12.20;99.90;;;;;;4928629;29;20027;-79
2023/08/28 03:45:45;;;;;;;2.42;1.50;;;12.20;99.90;;;;;;4928656;29;20571;-79
2023/08/28 03:48:11;;;;;;;2.38;1.55;;;12.20;99.90;;;;;;4925841;29;20464;-80
2023/08/28 03:50:37;;;;;;;4.63;1.67;;;12.30;99.90;;;;;;4928431;29;20106;-79
2023/08/28 03:53:02;;;;;;;2.22;1.33;;;12.30;99.90;;;;;;4921633;29;20121;-80
2023/08/28 03:55:29;;;;;;;1.83;1.60;;;12.30;99.90;;;;;;4912026;29;20053;-80
2023/08/28 03:57:55;;;;;;;2.95;1.55;;;12.40;99.90;;;;;;4927531;29;20027;-80
2023/08/28 04:00:21;;;;;;;3.63;2.03;;;12.40;99.90;;;;;;4925297;29;20106;-80
2023/08/28 04:02:47;;;;;;;6.70;3.10;;;12.40;99.90;;;;;;4927213;29;20761;-80
2023/08/28 04:05:13;;;;;;;3.08;2.58;;;12.40;99.90;;;;;;4927409;29;20915;-80
2023/08/28 04:07:40;;;;;;;6.88;2.80;;;12.40;99.90;;;;;;4927807;29;20035;-80
2023/08/28 04:10:06;;;;;;;7.05;2.55;;;12.30;99.90;;;;;;4928296;29;20468;-80
2023/08/28 04:12:33;;;;;;;3.60;2.60;;;12.30;99.90;;;;;;4928201;29;20115;-80
2023/08/28 04:14:58;;;;;;;6.47;2.60;;;12.30;99.90;;;;;;4927520;29;20473;-80
2023/08/28 04:17:24;;;;;;;3.75;2.28;;;12.30;99.90;;;;;;4926449;29;20020;-80
2023/08/28 04:19:51;;;;;;;5.75;2.45;;;12.30;99.90;;;;;;4924998;29;20051;-80
2023/08/28 04:22:19;;;;;;;4.38;2.92;;;12.40;99.90;;;;;;4926304;29;20055;-80
2023/08/28 04:24:48;;;;;;;4.97;2.47;;;12.40;99.90;;;;;;4920916;29;20568;-80
2023/08/28 04:27:13;;;;;;;6.80;2.63;;;12.40;99.90;;;;;;4914501;29;20028;-80
2023/08/28 04:29:40;;;;;;;3.83;2.78;;;12.40;99.90;;;;;;4926216;29;20403;-79
2023/08/28 04:32:06;;;;;;;6.20;2.53;;;12.40;99.90;;;;;;4918089;29;20934;-80
2023/08/28 04:34:31;;;;;;;5.05;2.63;;;12.30;99.90;;;;;;4907623;29;20036;-79
2023/08/28 04:36:57;;;;;;;3.22;2.45;;;12.30;99.90;;;;;;4916530;29;20039;-80
2023/08/28 04:39:25;;;;;;;5.78;2.83;;;12.20;99.90;;;;;;4926192;29;20111;-80
2023/08/28 04:41:52;;;;;;;3.53;2.58;;;12.10;99.90;;;;;;4922392;29;20500;-80
2023/08/28 04:44:18;;;;;;;5.25;2.47;;;12.00;99.90;;;;;;4907352;29;20063;-80
2023/08/28 04:46:46;;;;;;;5.93;2.60;;;11.90;99.90;;;;;;4926482;29;20023;-80
2023/08/28 04:49:11;;;;;;;5.05;3.00;;;11.90;99.90;;;;;;4911716;29;20214;-80
2023/08/28 04:51:37;;;;;;;3.75;2.10;;;11.80;99.90;;;;;;4922588;29;20695;-80
2023/08/28 04:54:02;;;;;;;4.38;2.25;;;11.70;99.90;;;;;;4915260;29;20496;-80
2023/08/28 04:56:28;;;;;;;3.92;2.15;;;11.70;99.90;;;;;;4912304;29;20175;-79
2023/08/28 04:58:54;;;;;;;4.90;2.55;;;11.60;99.90;;;;;;4930752;29;20036;-81
2023/08/28 05:01:19;;;;;;;4.18;2.38;;;11.60;99.90;;;;;;4923551;29;20031;-80
2023/08/28 05:03:45;;;;;;;3.25;2.20;;;11.60;99.90;;;;;;4910968;29;20052;-80
2023/08/28 05:06:11;;;;;;;2.67;1.73;;;11.60;99.90;;;;;;4918493;29;20911;-80
2023/08/28 05:08:36;;;;;;;3.38;1.85;;;11.50;99.90;;;;;;4939463;29;20048;-80
2023/08/28 05:11:04;;;;;;;5.65;2.20;;;11.60;99.90;;;;;;4929517;29;20034;-79
2023/08/28 05:13:29;;;;;;;5.80;2.45;;;11.70;99.90;;;;;;4930610;29;20031;-80
2023/08/28 05:15:55;;;;;;;4.57;2.20;;;11.80;99.90;;;;;;4928955;29;20035;-80
2023/08/28 05:18:22;;;;;;;5.00;1.98;;;11.90;99.90;;;;;;4928931;29;20050;-80
2023/08/28 05:20:47;;;;;;;3.53;1.80;;;12.00;99.90;;;;;;4928289;29;20055;-80
2023/08/28 05:23:13;;;;;;;4.97;2.05;;;12.10;99.90;;;;;;4917778;29;20276;-80
2023/08/28 05:25:38;;;;;;;2.10;1.80;;;12.20;99.90;;;;;;4913373;29;20762;-80
2023/08/28 05:28:04;;;;;;;4.00;1.88;;;12.30;99.90;;;;;;4916694;29;20024;-80
2023/08/28 05:30:30;;;;;;;3.92;1.42;;;12.40;99.90;;;;;;4941859;29;20035;-80
2023/08/28 05:32:55;;;;;;;4.70;1.80;;;12.50;99.90;;;;;;4931607;29;20107;-80
2023/08/28 05:35:21;;;;;;;4.22;1.80;;;12.60;99.90;;;;;;4922624;29;20519;-80
2023/08/28 05:37:46;;;;;;;4.03;1.73;;;12.70;99.90;;;;;;4924012;29;20028;-81
2023/08/28 05:40:14;;;;;;;3.28;1.60;;;12.80;99.90;;;;;;4942114;29;20115;-80
2023/08/28 05:42:42;;;;;;;2.88;1.90;;;12.90;99.90;;;;;;4923806;29;20035;-80
2023/08/28 05:45:08;;;;;;;4.03;1.60;;;13.00;99.90;;;;;;4927710;29;20036;-81
2023/08/28 05:47:36;;;;;;;1.70;1.40;;;13.10;99.90;;;;;;4921378;29;20094;-80
2023/08/28 05:50:03;;;;;;;2.80;1.75;;;13.20;99.90;;;;;;4915794;29;20914;-80
2023/08/28 05:52:29;;;;;;;4.72;1.65;;;13.30;99.90;;;;;;4910721;29;20028;-80
2023/08/28 05:54:54;;;;;;;3.30;1.67;;;13.40;99.90;;;;;;4907755;29;20043;-79
2023/08/28 05:57:20;;;;;;;4.50;1.83;;;13.50;99.90;;;;;;4911303;29;20071;-80
2023/08/28 05:59:46;;;;;;;3.55;1.77;;;13.60;99.90;;;;;;4920967;29;20062;-80
2023/08/28 06:02:12;;;;;;;6.18;1.92;;;13.70;99.90;;;;;;4924742;29;20023;-80
2023/08/28 06:04:38;;;;;;;4.20;3.03;;;13.70;99.90;;;;;;4917330;29;20107;-80
2023/08/28 06:07:04;;;;;;;6.82;3.85;;;13.80;99.90;;;;;;4922463;29;20164;-79
2023/08/28 06:09:30;;;;;;;6.30;4.35;;;13.90;99.90;;;;;;4914222;29;20036;-80
2023/08/28 06:11:55;;;;;;;8.68;4.50;;;14.00;99.90;;;;;;4918691;29;20039;-80
2023/08/28 06:14:21;;;;;;;5.60;3.85;;;14.20;99.90;;;;;;4924385;29;20063;-80
2023/08/28 06:16:47;;;;;;;9.75;4.22;;;14.30;99.90;;;;;;4916237;29;20024;-81
2023/08/28 06:19:12;;;;;;;6.63;3.92;;;14.40;99.90;;;;;;4910767;29;20031;-81
2023/08/28 06:21:40;;;;;;;6.07;3.58;;;14.60;99.90;;;;;;4910748;29;20027;-80
2023/08/28 06:24:06;;;;;;;8.38;4.57;;;14.70;99.90;;;;;;4918113;29;20567;-81
2023/08/28 06:26:31;;;;;;;6.78;4.15;;;14.80;99.90;;;;;;4920682;29;20118;-79
2023/08/28 06:28:57;;;;;;;6.03;3.97;;;15.00;99.90;;;;;;4915983;29;20493;-80
2023/08/28 06:31:23;;;;;;;5.45;3.90;;;15.10;99.90;;;;;;4921696;29;20042;-79
2023/08/28 06:33:49;;;;;;;4.97;3.90;;;15.30;99.90;;;;;;4928061;29;20043;-81
2023/08/28 06:36:14;;;;;;;7.47;4.10;;;15.40;99.90;;;;;;4920828;29;20034;-80
2023/08/28 06:41:36;;;;;;;5.07;3.47;;;15.60;99.90;;;;;;5182689;23;20075;-89
2023/08/28 06:44:01;;;;;;;8.77;3.45;;;15.70;99.90;;;;;;4942877;29;20032;-89
2023/08/28 06:46:27;;;;;;;8.55;3.55;;;15.90;99.90;;;;;;4930039;29;20119;-88
2023/08/28 06:48:53;;;;;;;7.28;3.78;;;16.10;99.90;;;;;;4915206;29;20100;-88
2023/08/28 06:51:22;;;;;;;6.90;3.08;;;16.40;99.90;;;;;;4945234;29;20474;-88
2023/08/28 06:53:49;;;;;;;4.57;2.40;;;16.60;99.90;;;;;;4939351;29;20198;-89
2023/08/28 06:56:15;;;;;;;6.32;2.25;;;16.70;99.90;;;;;;4938332;29;20039;-89
2023/08/28 06:58:40;;;;;;;2.95;1.92;;;16.90;99.90;;;;;;4949637;28;20282;-87
2023/08/28 07:01:06;;;;;;;5.63;2.42;;;16.90;99.90;;;;;;4931991;29;20482;-89
2023/08/28 07:03:31;;;;;;;4.10;2.00;;;17.10;99.90;;;;;;4940399;29;20031;-88
2023/08/28 07:05:57;;;;;;;4.25;1.80;;;17.40;99.90;;;;;;4939939;29;20035;-86
2023/08/28 07:08:23;;;;;;;2.90;1.88;;;17.50;99.90;;;;;;4937499;29;20030;-89
2023/08/28 07:10:48;;;;;;;2.75;2.15;;;17.50;99.90;;;;;;4916386;29;20550;-90
2023/08/28 07:13:14;;;;;;;4.15;2.10;;;17.40;99.90;;;;;;4929843;29;20043;-89
2023/08/28 07:15:39;;;;;;;3.03;1.60;;;17.30;99.90;;;;;;4920852;29;20103;-90
2023/08/28 07:18:05;;;;;;;3.58;1.42;;;17.10;99.90;;;;;;4933974;29;20059;-89
2023/08/28 07:20:31;;;;;;;4.35;1.50;;;16.90;99.90;;;;;;4936757;29;20032;-89
2023/08/28 07:22:57;;;;;;;3.58;1.42;;;16.70;99.90;;;;;;4929182;29;20103;-86
2023/08/28 07:25:23;;;;;;;2.53;1.35;;;16.50;99.90;;;;;;4937255;28;20016;-88
2023/08/28 07:27:49;;;;;;;2.58;1.52;;;16.40;99.90;;;;;;4945366;28;20039;-90
2023/08/28 07:30:15;;;;;;;4.38;1.30;;;16.40;99.90;;;;;;4947995;28;20052;-91
2023/08/28 07:32:41;;;;;;;5.32;1.40;;;16.50;99.90;;;;;;4934375;29;20036;-88
2023/08/28 07:35:07;;;;;;;2.83;1.27;;;16.70;99.90;;;;;;4930074;29;20036;-84
2023/08/28 07:37:36;;;;;;;2.70;1.13;;;16.90;99.90;;;;;;4926055;29;20032;-89
2023/08/28 07:40:04;;;;;;;4.82;1.40;;;17.30;99.90;;;;;;4928241;29;20028;-88
2023/08/28 07:42:30;;;;;;;2.55;1.38;;;17.50;99.90;;;;;;4931004;29;20032;-85
2023/08/28 07:44:56;;;;;;;2.58;1.35;;;17.90;99.90;;;;;;4925515;29;20044;-85
2023/08/28 07:47:21;;;;;;;3.88;1.60;;;18.40;99.90;;;;;;4921435;29;20065;-88
2023/08/28 07:49:48;;;;;;;2.53;1.52;;;19.50;99.90;;;;;;4922098;29;20424;-87
2023/08/28 07:52:13;;;;;;;3.28;1.42;;;21.40;99.90;;;;;;4923793;29;20043;-87
2023/08/28 07:54:39;;;;;;;3.15;1.05;;;24.10;99.90;;;;;;4924453;29;20061;-87
2023/08/28 07:57:05;;;;;;;2.35;1.15;;;26.40;97.30;;;;;;4922087;29;20118;-87
2023/08/28 07:59:30;;;;;;;4.70;2.65;;;28.20;88.00;;;;;;4923361;29;20094;-84
2023/08/28 08:01:57;;;;;;;4.50;2.53;;;29.50;77.80;;;;;;4914594;29;20028;-85
2023/08/28 08:04:23;;;;;;;3.60;1.90;;;29.90;71.20;;;;;;4922562;29;20063;-86
2023/08/28 08:06:49;;;;;;;3.83;1.92;;;30.50;66.50;;;;;;4921808;29;20100;-88
2023/08/28 08:09:15;;;;;;;3.42;1.63;;;31.10;62.40;;;;;;4928621;29;20036;-87
2023/08/28 08:11:40;;;;;;;2.92;1.55;;;31.80;59.10;;;;;;4921412;29;20035;-86
2023/08/28 08:14:06;;;;;;;6.70;3.80;;;32.00;59.00;;;;;;4927041;29;20032;-84
2023/08/28 08:16:31;;;;;;;9.38;4.90;;;32.40;57.10;;;;;;4926429;29;20111;-84
2023/08/28 08:18:57;;;;;;;5.60;2.58;;;32.50;54.10;;;;;;4922095;29;20681;-83
2023/08/28 08:21:22;;;;;;;5.97;2.63;;;32.50;54.50;;;;;;4570061;28;10000237;-83
2023/08/28 08:23:49;;;;;;;5.80;3.08;;;32.40;53.00;;;;;;4909773;29;20051;-82
2023/08/28 08:26:15;;;;;;;4.45;2.42;;;32.20;53.40;;;;;;4918108;29;20058;-83
2023/08/28 08:28:41;;;;;;;3.50;1.50;;;31.60;54.90;;;;;;4916399;29;20035;-83
2023/08/28 08:31:07;;;;;;;3.92;1.98;;;30.90;54.60;;;;;;4932987;29;20032;-83
2023/08/28 08:33:33;;;;;;;3.22;1.60;;;31.10;54.80;;;;;;4927666;29;20043;-83
2023/08/28 08:35:58;;;;;;;2.85;1.38;;;31.10;55.30;;;;;;4923107;29;20042;-83
2023/08/28 08:38:24;;;;;;;2.63;1.30;;;31.20;53.60;;;;;;4918889;29;20020;-85
2023/08/28 08:40:52;;;;;;;3.40;1.15;;;30.90;53.70;;;;;;4928776;29;20051;-83
2023/08/28 08:43:18;;;;;;;1.50;0.70;;;30.40;55.20;;;;;;4932613;29;20106;-89
2023/08/28 08:45:47;;;;;;;2.00;1.00;;;29.80;56.90;;;;;;4935827;29;20080;-87
2023/08/28 08:48:17;;;;;;;2.13;1.02;;;29.60;55.50;;;;;;4927899;29;20028;-88
2023/08/28 08:50:46;;;;;;;1.30;0.90;;;29.60;53.90;;;;;;4930096;29;20023;-88
2023/08/28 08:53:28;;;;;;;1.85;0.90;;;29.70;55.70;;;;;;4930263;29;20046;-85
2023/08/28 08:55:57;;;;;;;1.83;0.80;;;29.70;56.00;;;;;;4927184;29;20036;-89
2023/08/28 08:58:24;;;;;;;1.83;0.73;;;29.50;57.00;;;;;;4931120;29;20055;-86
2023/08/28 09:00:50;;;;;;;2.05;0.75;;;29.10;54.20;;;;;;4933334;29;20036;-88
2023/08/28 09:03:17;;;;;;;2.03;0.90;;;28.40;55.80;;;;;;4926326;29;20035;-87
2023/08/28 09:05:44;;;;;;;1.65;0.73;;;27.70;57.10;;;;;;4589292;29;9999690;-88
2023/08/28 09:08:10;;;;;;;2.13;0.73;;;28.10;61.80;;;;;;4926193;29;20031;-86
2023/08/28 09:10:36;;;;;;;1.10;0.50;;;29.80;57.80;;;;;;4930301;29;20475;-89
2023/08/28 09:13:02;;;;;;;2.38;1.00;;;32.00;53.50;;;;;;4931336;29;20122;-90
2023/08/28 09:15:27;;;;;;;0.85;0.52;;;32.90;50.20;;;;;;4924260;29;20059;-82
2023/08/28 09:17:53;;;;;;;2.10;0.68;;;33.70;50.40;;;;;;4926907;29;20051;-86
2023/08/28 09:20:22;;;;;;;3.60;0.80;;;34.40;47.90;;;;;;4929027;29;20035;-85
2023/08/28 09:22:53;;;;;;;1.23;0.60;;;33.60;46.70;;;;;;4928976;29;20031;-85
2023/08/28 09:25:21;;;;;;;2.88;0.65;;;32.10;48.00;;;;;;4931182;29;20415;-87
2023/08/28 09:27:51;;;;;;;1.95;0.60;;;30.50;52.00;;;;;;4926154;29;20036;-86
2023/08/28 09:30:36;;;;;;;1.88;0.63;;;30.50;53.00;;;;;;4928364;29;20054;-85
2023/08/28 09:33:04;;;;;;;1.63;0.80;;;30.10;52.20;;;;;;4929945;29;20039;-87
2023/08/28 09:35:50;;;;;;;1.83;0.80;;;28.80;51.40;;;;;;4942084;28;20036;-85
2023/08/28 09:38:16;;;;;;;3.95;1.48;;;27.50;55.60;;;;;;4910514;29;20051;-85
2023/08/28 09:40:42;;;;;;;4.53;1.75;;;26.90;59.70;;;;;;4922319;29;21603;-86
2023/08/28 09:43:15;;;;;;;2.58;1.40;;;27.30;59.60;;;;;;4927709;29;20027;-82
2023/08/28 09:45:45;;;;;;;4.50;2.47;;;27.50;56.90;;;;;;4933301;28;21815;-83
2023/08/28 09:48:11;;;;;;;3.45;1.25;;;27.70;56.70;;;;;;4925724;29;20299;-83
2023/08/28 09:50:42;;;;;;;1.77;1.00;;;27.00;58.20;;;;;;4924662;29;20039;-83
2023/08/28 09:53:10;;;;;;;4.20;1.73;;;26.50;62.40;;;;;;4916781;29;20036;-82
2023/08/28 09:55:48;;;;;;;3.65;1.40;;;25.90;60.70;;;;;;4944358;28;20125;-84
2023/08/28 09:58:14;;;;;;;3.53;1.70;;;27.90;59.50;;;;;;4924275;29;20059;-84
2023/08/28 10:00:42;;;;;;;3.75;1.95;;;30.80;55.00;;;;;;4934534;29;20039;-85
2023/08/28 10:03:12;;;;;;;1.83;1.00;;;33.60;52.10;;;;;;4939963;29;20111;-85
2023/08/28 10:05:43;;;;;;;0.75;0.50;;;35.90;45.60;;;;;;4927267;29;20035;-84
2023/08/28 10:08:10;;;;;;;1.25;0.73;;;35.50;44.50;;;;;;4916489;29;20185;-83
2023/08/28 10:10:37;;;;;;;1.15;0.60;;;33.50;45.80;;;;;;4927134;29;20035;-86
2023/08/28 10:13:04;;;;;;;1.95;0.52;;;30.50;48.60;;;;;;4917476;29;20036;-84
2023/08/28 10:15:33;;;;;;;1.17;0.70;;;29.10;49.90;;;;;;4921235;29;20032;-84
2023/08/28 10:18:04;;;;;;;1.25;0.63;;;28.50;52.20;;;;;;4923767;29;20045;-87
2023/08/28 10:20:30;;;;;;;2.35;0.73;;;28.20;53.00;;;;;;4926620;29;20063;-81
2023/08/28 10:22:57;;;;;;;1.73;0.77;;;28.40;54.90;;;;;;4591223;29;10000300;-84
2023/08/28 10:25:25;;;;;;;1.33;0.80;;;29.00;51.40;;;;;;4923211;29;20078;-84
2023/08/28 10:27:52;;;;;;;1.20;0.80;;;28.70;53.50;;;;;;4925345;29;20209;-86
2023/08/28 10:30:21;;;;;;;1.63;0.68;;;28.90;51.10;;;;;;4926528;29;20047;-83
2023/08/28 10:32:47;;;;;;;2.35;0.90;;;29.20;50.90;;;;;;4931203;29;20032;-88
2023/08/28 10:35:14;;;;;;;1.92;0.90;;;28.60;50.90;;;;;;4923297;29;20046;-83
2023/08/28 10:37:41;;;;;;;2.03;0.80;;;28.00;54.50;;;;;;4925485;29;20260;-84
2023/08/28 10:40:08;;;;;;;0.90;0.70;;;27.10;56.10;;;;;;4923677;29;20039;-84
2023/08/28 10:42:36;;;;;;;1.67;0.90;;;26.70;59.10;;;;;;4928118;29;20086;-84
2023/08/28 10:45:02;;;;;;;2.28;0.88;;;26.70;60.40;;;;;;4923552;29;20054;-84
2023/08/28 10:47:27;;;;;;;1.60;1.02;;;27.40;59.20;;;;;;4922978;29;20392;-83
2023/08/28 10:49:55;;;;;;;1.60;0.90;;;28.10;56.60;;;;;;4927949;29;20695;-81
2023/08/28 10:52:22;;;;;;;1.25;0.68;;;29.80;54.00;;;;;;4926386;29;20059;-83
2023/08/28 10:54:48;;;;;;;2.65;0.90;;;30.10;51.90;;;;;;4927653;29;20039;-82
2023/08/28 10:57:25;;;;;;;2.20;1.00;;;29.60;52.80;;;;;;4925384;29;20026;-84
2023/08/28 10:59:51;;;;;;;0.95;0.73;;;28.30;54.50;;;;;;4941421;29;20036;-83
2023/08/28 11:02:18;;;;;;;1.42;0.90;;;28.00;56.90;;;;;;4925456;29;20038;-80
2023/08/28 11:04:44;;;;;;;1.38;0.93;;;27.90;58.40;;;;;;4934512;29;20050;-80
2023/08/28 11:07:23;;;;;;;3.90;0.60;;;27.60;54.60;;;;;;3931381;29;10000920;-81
2023/08/28 11:09:49;;;;;;;1.63;1.00;;;26.90;56.30;;;;;;4923445;29;20278;-82
2023/08/28 11:12:15;;;;;;;2.25;0.93;;;26.70;58.10;;;;;;4923058;29;21781;-79
2023/08/28 11:14:53;;;;;;;2.42;1.20;;;26.20;60.30;;;;;;4919721;29;20027;-80
2023/08/28 11:17:20;;;;;;;1.50;0.90;;;25.50;61.70;;;;;;4910050;29;20150;-80
2023/08/28 11:19:55;;;;;;;2.55;1.10;;;24.80;64.00;;;;;;4923310;29;20024;-81
2023/08/28 11:22:45;;;;;;;1.60;1.23;;;24.00;66.20;;;;;;4923095;29;20164;-82
2023/08/28 11:25:12;;;;;;;2.28;1.13;;;23.70;68.60;;;;;;4922568;29;20071;-84
2023/08/28 11:27:42;;;;;;;3.97;1.10;;;24.00;75.20;;;;;;4922976;28;20039;-87
2023/08/28 11:30:09;;;;;;;1.23;1.02;;;25.40;77.60;;;;;;4909516;29;20040;-83
2023/08/28 11:32:37;;;;;;;1.40;0.90;;;26.80;68.00;;;;;;4944377;28;20027;-85
2023/08/28 11:35:10;;;;;;;1.90;0.80;;;27.50;63.80;;;;;;4928320;29;20053;-84
2023/08/28 11:37:39;;;;;;;1.42;0.85;;;27.30;59.60;;;;;;4926119;29;20035;-85
2023/08/28 11:40:06;;;;;;;1.77;0.98;;;27.30;58.80;;;;;;4926626;29;20023;-83
2023/08/28 11:42:35;;;;;;;2.67;0.90;;;27.20;60.60;;;;;;4919080;29;20035;-83
2023/08/28 11:45:01;;;;;;;1.08;0.70;;;26.90;59.70;;;;;;4924840;29;20050;-82
2023/08/28 11:47:29;;;;;;;4.75;2.00;;;26.80;62.70;;;;;;4938093;29;20090;-81
2023/08/28 11:49:55;;;;;;;1.52;1.00;;;26.30;63.50;;;;;;4924709;29;20134;-82
2023/08/28 11:52:22;;;;;;;0.85;0.60;;;25.50;64.70;;;;;;4926055;29;20020;-82
2023/08/28 11:54:48;;;;;;;2.30;0.70;;;24.60;66.70;;;;;;4924290;29;20028;-83
2023/08/28 11:57:19;;;;;;;2.28;0.88;;;23.70;67.00;;;;;;4907570;29;20106;-83
2023/08/28 11:59:47;;;;;;;2.53;0.82;;;23.30;73.00;;;;;;4921855;29;20118;-83
2023/08/28 12:02:13;;;;;;;0.85;0.63;;;23.20;79.60;;;;;;4944215;29;20031;-84
2023/08/28 12:04:40;;;;;;;1.38;0.80;;;23.30;78.90;;;;;;4923094;29;20107;-82
2023/08/28 12:07:16;;;;;;;1.55;0.80;;;23.40;74.90;;;;;;4917395;29;20036;-82
2023/08/28 12:09:43;;;;;;;2.00;0.77;;;23.90;76.00;;;;;;4926735;29;20099;-83
2023/08/28 12:12:08;;;;;;;1.95;1.05;;;24.20;75.10;;;;;;4927001;29;20107;-82
2023/08/28 12:14:34;;;;;;;2.45;1.05;;;24.70;75.20;;;;;;4926063;29;20458;-82
2023/08/28 12:17:00;;;;;;;1.50;0.80;;;25.00;71.80;;;;;;4926755;29;20037;-84
2023/08/28 12:19:26;;;;;;;3.22;0.88;;;25.20;72.80;;;;;;4927722;29;20039;-84
2023/08/28 12:21:51;;;;;;;1.98;0.70;;;25.20;73.90;;;;;;4927546;29;20039;-82
2023/08/28 12:24:17;;;;;;;2.63;0.70;;;25.00;70.40;;;;;;4922832;29;20374;-82
2023/08/28 12:26:43;;;;;;;1.08;0.70;;;24.90;73.10;;;;;;4920048;29;20199;-83
2023/08/28 12:29:09;;;;;;;1.02;0.60;;;25.00;70.40;;;;;;4920209;29;20090;-83
2023/08/28 12:31:35;;;;;;;1.50;0.90;;;25.30;75.90;;;;;;4916921;28;20703;-83
2023/08/28 12:34:11;;;;;;;1.60;1.05;;;25.50;69.40;;;;;;4927480;29;20789;-85
2023/08/28 12:36:45;;;;;;;1.23;0.70;;;25.40;65.50;;;;;;4924740;29;20074;-83
2023/08/28 12:39:15;;;;;;;0.93;0.70;;;25.40;66.80;;;;;;4923088;29;20035;-80
2023/08/28 12:41:55;;;;;;;1.50;0.68;;;25.30;65.80;;;;;;4925966;29;20059;-81
2023/08/28 12:44:22;;;;;;;1.45;0.73;;;25.50;72.70;;;;;;4922968;29;20510;-83
2023/08/28 12:46:49;;;;;;;1.67;0.80;;;25.50;67.50;;;;;;4921860;29;20115;-82
2023/08/28 12:49:16;;;;;;;1.00;0.70;;;25.60;71.70;;;;;;4917566;29;20131;-82